Time;durP1;ratioP1;P1;durP2;ratioP2;P2;SDS_P1;SDS_P2;PMS_P1;PMS_P2;Temp;Humidity;BMP_temperature;BMP_pressure;BME280_temperature;BME280_humidity;BME280_pressure;Samples;Min_cycle;Max_cycle;Signal;HPM_P1;HPM_P2
2022/10/29 05:02:56;;;;;;;11.85;5.07;;;13.40;99.90;;;;;;5376456;23;20050;-68
2022/10/29 05:05:21;;;;;;;12.90;5.03;;;13.30;99.90;;;;;;5023485;28;20042;-71
2022/10/29 05:07:47;;;;;;;10.40;4.57;;;13.20;99.90;;;;;;5023943;28;20343;-69
2022/10/29 05:10:13;;;;;;;13.13;4.95;;;13.10;99.90;;;;;;5023459;28;20120;-71
2022/10/29 05:12:40;;;;;;;12.65;5.45;;;13.00;99.90;;;;;;5024157;28;20057;-68
2022/10/29 05:15:06;;;;;;;12.80;5.40;;;13.00;99.90;;;;;;5023745;28;20029;-69
2022/10/29 05:17:37;;;;;;;9.98;5.53;;;12.90;99.90;;;;;;5023606;28;20037;-70
2022/10/29 05:20:04;;;;;;;11.30;5.80;;;12.80;99.90;;;;;;5023566;28;20312;-70
2022/10/29 05:22:30;;;;;;;11.35;5.53;;;12.70;99.90;;;;;;5005004;28;20033;-69
2022/10/29 05:24:55;;;;;;;13.00;5.57;;;12.70;99.90;;;;;;5004142;28;20088;-69
2022/10/29 05:27:21;;;;;;;12.70;5.68;;;12.60;99.90;;;;;;5003582;28;20327;-68
2022/10/29 05:29:47;;;;;;;13.13;5.55;;;12.60;99.90;;;;;;5004184;28;20189;-70
2022/10/29 05:32:12;;;;;;;10.75;5.93;;;12.50;99.90;;;;;;5003435;28;20022;-69
2022/10/29 05:34:38;;;;;;;12.30;6.22;;;12.50;99.90;;;;;;5004098;28;20327;-71
2022/10/29 05:37:04;;;;;;;14.30;6.60;;;12.40;99.90;;;;;;5021003;28;20296;-70
2022/10/29 05:39:29;;;;;;;15.98;7.93;;;12.40;99.90;;;;;;5023776;28;20089;-70
2022/10/29 05:41:55;;;;;;;13.90;7.43;;;12.30;99.90;;;;;;5023836;28;20315;-71
2022/10/29 05:44:21;;;;;;;16.23;7.20;;;12.40;99.90;;;;;;5005702;28;20219;-70
2022/10/29 05:46:49;;;;;;;14.05;7.80;;;12.30;99.90;;;;;;5023403;28;20231;-70
2022/10/29 05:49:15;;;;;;;15.70;8.40;;;12.20;99.90;;;;;;5023166;28;20045;-70
2022/10/29 05:51:41;;;;;;;16.15;7.88;;;12.10;99.90;;;;;;5023502;28;20030;-70
2022/10/29 05:54:07;;;;;;;14.13;7.15;;;12.10;99.90;;;;;;5022526;28;20089;-71
2022/10/29 05:56:32;;;;;;;17.17;9.45;;;12.10;99.90;;;;;;5023159;28;20030;-70
2022/10/29 05:58:58;;;;;;;15.30;8.20;;;12.10;99.90;;;;;;5005315;28;20094;-69
2022/10/29 06:01:24;;;;;;;18.02;7.82;;;12.00;99.90;;;;;;4988656;28;20029;-72
2022/10/29 06:03:49;;;;;;;16.90;7.95;;;12.00;99.90;;;;;;5023194;28;20033;-70
2022/10/29 06:06:15;;;;;;;15.00;8.23;;;12.00;99.90;;;;;;5022481;28;20074;-70
2022/10/29 06:08:41;;;;;;;12.05;8.27;;;12.00;99.90;;;;;;5023380;28;20026;-70
2022/10/29 06:11:07;;;;;;;18.10;8.18;;;11.90;99.90;;;;;;5004753;28;20092;-71
2022/10/29 06:13:32;;;;;;;15.25;8.02;;;11.90;99.90;;;;;;5022558;28;20036;-70
2022/10/29 06:15:59;;;;;;;15.88;8.45;;;12.00;99.90;;;;;;5022817;28;20029;-70
2022/10/29 06:18:26;;;;;;;11.73;7.72;;;11.90;99.90;;;;;;5004927;28;20026;-71
2022/10/29 06:20:53;;;;;;;14.63;7.97;;;11.90;99.90;;;;;;5022796;28;20026;-72
2022/10/29 06:23:19;;;;;;;15.52;7.68;;;11.90;99.90;;;;;;5022486;28;20033;-69
2022/10/29 06:25:44;;;;;;;13.10;7.57;;;11.90;99.90;;;;;;5022898;28;20038;-69
2022/10/29 06:28:14;;;;;;;14.00;7.78;;;11.90;99.90;;;;;;5021912;28;20046;-71
2022/10/29 06:30:40;;;;;;;15.52;8.20;;;11.90;99.90;;;;;;5022640;28;20029;-72
2022/10/29 06:33:06;;;;;;;12.57;7.22;;;12.00;99.90;;;;;;5022011;28;20097;-70
2022/10/29 06:35:33;;;;;;;13.82;6.90;;;11.90;99.90;;;;;;5022797;28;20117;-69
2022/10/29 06:37:59;;;;;;;14.25;7.75;;;12.00;99.90;;;;;;5009117;28;20247;-69
2022/10/29 06:40:25;;;;;;;14.93;7.22;;;12.00;99.90;;;;;;5002728;28;20030;-70
2022/10/29 06:43:01;;;;;;;13.35;7.32;;;12.00;99.90;;;;;;5002958;28;20097;-69
2022/10/29 06:45:28;;;;;;;14.57;7.85;;;12.00;99.90;;;;;;4968878;28;20037;-70
2022/10/29 06:47:53;;;;;;;15.48;8.02;;;12.10;99.90;;;;;;5002969;28;20102;-69
2022/10/29 06:50:19;;;;;;;24.25;14.18;;;12.10;99.90;;;;;;5002378;28;20077;-69
2022/10/29 06:52:55;;;;;;;20.50;11.48;;;12.20;99.90;;;;;;5002672;28;20089;-72
2022/10/29 06:55:21;;;;;;;30.27;19.00;;;12.20;99.90;;;;;;5002181;28;20041;-69
2022/10/29 06:57:47;;;;;;;37.47;19.63;;;12.20;99.90;;;;;;5010688;28;20311;-71
2022/10/29 07:00:13;;;;;;;30.92;17.92;;;12.30;99.90;;;;;;5021551;28;20022;-71
2022/10/29 07:02:38;;;;;;;26.17;14.60;;;12.40;99.90;;;;;;5021775;28;20137;-70
2022/10/29 07:05:04;;;;;;;21.00;9.77;;;12.40;99.90;;;;;;5022008;28;20034;-70
2022/10/29 07:07:30;;;;;;;18.95;10.10;;;12.50;99.90;;;;;;5021904;28;20040;-73
2022/10/29 07:09:57;;;;;;;16.17;8.90;;;12.60;99.90;;;;;;5022357;28;20030;-68
2022/10/29 07:12:22;;;;;;;21.55;10.40;;;12.70;99.90;;;;;;5022116;28;20022;-70
2022/10/29 07:14:48;;;;;;;21.10;10.48;;;12.80;99.90;;;;;;5022429;28;20130;-70
2022/10/29 07:17:14;;;;;;;20.65;10.18;;;12.90;99.90;;;;;;5021865;28;20260;-69
2022/10/29 07:19:39;;;;;;;19.75;9.38;;;13.00;99.90;;;;;;5022047;28;20030;-74
2022/10/29 07:22:05;;;;;;;15.77;7.93;;;13.10;99.90;;;;;;5021860;28;20029;-70
2022/10/29 07:24:31;;;;;;;21.50;8.75;;;13.10;99.90;;;;;;5022607;28;20025;-72
2022/10/29 07:26:56;;;;;;;17.35;7.70;;;13.20;99.90;;;;;;5025706;28;20034;-73
2022/10/29 07:29:25;;;;;;;17.90;8.43;;;13.30;99.90;;;;;;5025384;28;20026;-71
2022/10/29 07:31:51;;;;;;;17.05;7.45;;;13.50;99.90;;;;;;5026034;28;20057;-70
2022/10/29 07:34:16;;;;;;;11.43;6.72;;;13.60;99.90;;;;;;5024021;28;20235;-70
2022/10/29 07:36:42;;;;;;;14.18;6.95;;;13.70;99.90;;;;;;5025969;28;20332;-70
2022/10/29 07:39:08;;;;;;;14.95;6.05;;;13.80;99.90;;;;;;5025468;28;20037;-71
2022/10/29 07:41:34;;;;;;;16.50;5.63;;;13.90;99.90;;;;;;5025797;28;20209;-70
2022/10/29 07:43:59;;;;;;;15.18;6.22;;;14.00;99.90;;;;;;5007919;28;20080;-69
2022/10/29 07:46:25;;;;;;;11.55;6.25;;;14.10;99.90;;;;;;5006503;28;20165;-70
2022/10/29 07:48:51;;;;;;;12.52;5.60;;;14.20;99.90;;;;;;5024745;28;20060;-70
2022/10/29 07:51:16;;;;;;;13.02;5.57;;;14.40;99.90;;;;;;5024697;28;20052;-73
2022/10/29 07:53:42;;;;;;;12.30;5.82;;;14.60;99.90;;;;;;5025115;28;20022;-70
2022/10/29 07:56:08;;;;;;;11.95;5.68;;;14.80;99.90;;;;;;5025076;28;20072;-71
2022/10/29 07:58:33;;;;;;;9.32;4.90;;;14.90;99.90;;;;;;5025128;28;20052;-72
2022/10/29 08:00:59;;;;;;;8.85;4.57;;;15.10;99.90;;;;;;5025631;28;20033;-70
2022/10/29 08:03:25;;;;;;;16.00;5.60;;;15.30;99.90;;;;;;5003850;28;20201;-70
2022/10/29 08:05:50;;;;;;;14.15;5.38;;;15.50;99.90;;;;;;5005682;28;20034;-70
2022/10/29 08:08:16;;;;;;;15.02;6.07;;;15.70;99.90;;;;;;5005378;28;20026;-72
2022/10/29 08:10:43;;;;;;;14.40;5.60;;;15.90;99.90;;;;;;4992410;28;20027;-71
2022/10/29 08:13:08;;;;;;;14.27;5.10;;;16.10;99.90;;;;;;4986424;28;20034;-71
2022/10/29 08:15:34;;;;;;;16.33;5.80;;;16.30;99.90;;;;;;4994810;28;20023;-71
2022/10/29 08:18:01;;;;;;;14.93;4.93;;;16.50;99.90;;;;;;5005730;28;20030;-70
2022/10/29 08:20:27;;;;;;;11.43;5.13;;;16.70;99.90;;;;;;5004789;28;20018;-70
2022/10/29 08:22:53;;;;;;;15.15;5.43;;;17.00;99.90;;;;;;5006218;28;20026;-72
2022/10/29 08:25:20;;;;;;;14.60;5.25;;;17.20;99.90;;;;;;5004834;28;20141;-69
2022/10/29 08:28:01;;;;;;;12.95;5.13;;;17.50;99.90;;;;;;5005266;28;20054;-70
2022/10/29 08:30:27;;;;;;;13.20;5.20;;;17.60;99.90;;;;;;5004030;28;20026;-71
2022/10/29 08:32:53;;;;;;;10.50;5.30;;;17.80;99.90;;;;;;5004206;28;20312;-71
2022/10/29 08:35:18;;;;;;;14.15;5.15;;;17.80;99.90;;;;;;5003013;28;20041;-71
2022/10/29 08:37:44;;;;;;;10.38;4.55;;;17.80;99.90;;;;;;5005007;28;20089;-70
2022/10/29 08:40:17;;;;;;;11.30;4.40;;;17.80;99.90;;;;;;5005646;28;20320;-71
2022/10/29 08:43:24;;;;;;;14.15;4.30;;;17.80;99.90;;;;;;5006004;28;20103;-71
2022/10/29 08:45:53;;;;;;;14.48;5.32;;;17.70;99.90;;;;;;5004120;28;20031;-70
2022/10/29 08:48:38;;;;;;;13.68;4.50;;;17.60;99.90;;;;;;5003635;28;20054;-71
2022/10/29 08:51:24;;;;;;;13.10;4.30;;;17.70;99.90;;;;;;5004781;28;20042;-70
2022/10/29 08:53:56;;;;;;;12.93;4.55;;;17.80;99.90;;;;;;4987302;28;20189;-71
2022/10/29 08:56:36;;;;;;;11.80;5.00;;;17.90;99.90;;;;;;4986631;28;20100;-71
2022/10/29 08:59:19;;;;;;;12.45;4.53;;;17.90;99.90;;;;;;5003431;28;20030;-69
2022/10/29 09:01:46;;;;;;;12.18;4.43;;;17.90;99.90;;;;;;4994827;28;20090;-71
2022/10/29 09:04:23;;;;;;;9.15;3.72;;;17.90;99.90;;;;;;5024157;28;20033;-74
2022/10/29 09:07:10;;;;;;;10.50;4.60;;;17.80;99.90;;;;;;5024360;28;20055;-75
2022/10/29 09:10:10;;;;;;;12.43;4.47;;;17.80;99.90;;;;;;5023506;28;20054;-77
2022/10/29 09:12:46;;;;;;;14.13;4.22;;;17.90;99.90;;;;;;5013726;28;20088;-75
2022/10/29 09:15:40;;;;;;;17.70;4.72;;;17.90;99.90;;;;;;5022213;28;20049;-74
2022/10/29 09:18:38;;;;;;;14.68;4.68;;;18.10;99.90;;;;;;5022844;28;20048;-77
2022/10/29 09:21:26;;;;;;;12.55;4.35;;;18.20;99.90;;;;;;5013294;28;20053;-76
2022/10/29 09:24:21;;;;;;;12.48;5.10;;;18.40;99.90;;;;;;5022380;28;20038;-78
2022/10/29 09:26:47;;;;;;;11.25;4.65;;;18.50;99.90;;;;;;5022252;28;20053;-77
2022/10/29 09:29:52;;;;;;;12.30;4.97;;;18.50;99.90;;;;;;5011664;28;20034;-76
2022/10/29 09:32:30;;;;;;;14.35;5.07;;;18.70;99.90;;;;;;5022566;28;20037;-77
2022/10/29 09:35:06;;;;;;;15.10;5.00;;;18.80;99.90;;;;;;5004836;28;20083;-74
2022/10/29 09:37:54;;;;;;;12.27;5.13;;;18.90;99.90;;;;;;5021766;28;20032;-74
2022/10/29 09:40:40;;;;;;;12.57;5.43;;;19.00;99.90;;;;;;5021969;28;20130;-74
2022/10/29 09:43:14;;;;;;;12.10;4.60;;;19.10;99.90;;;;;;5022010;28;20058;-75
2022/10/29 09:45:49;;;;;;;14.70;5.00;;;19.30;99.90;;;;;;5021721;28;20042;-74
2022/10/29 09:48:28;;;;;;;17.17;4.55;;;19.40;99.90;;;;;;5003186;28;20029;-75
2022/10/29 09:51:00;;;;;;;12.30;4.15;;;19.60;99.90;;;;;;5021988;28;20071;-74
2022/10/29 09:53:26;;;;;;;11.60;4.30;;;19.70;99.90;;;;;;5021255;28;20080;-74
2022/10/29 09:55:52;;;;;;;18.85;5.25;;;19.90;99.90;;;;;;5004391;28;20088;-75
2022/10/29 09:58:26;;;;;;;10.73;5.03;;;20.00;99.90;;;;;;5021542;28;20029;-75
2022/10/29 10:00:53;;;;;;;14.80;5.65;;;20.10;99.90;;;;;;5021773;28;20079;-74
2022/10/29 10:03:44;;;;;;;18.48;5.15;;;20.20;99.90;;;;;;5021051;28;20058;-74
2022/10/29 10:06:13;;;;;;;15.32;5.80;;;20.30;99.90;;;;;;5021728;28;20032;-74
2022/10/29 10:09:00;;;;;;;10.27;3.97;;;20.50;99.90;;;;;;5021739;28;20102;-75
2022/10/29 10:11:44;;;;;;;8.15;3.53;;;20.70;99.90;;;;;;5021526;28;20030;-75
2022/10/29 10:14:23;;;;;;;15.65;5.15;;;20.90;99.90;;;;;;5003110;28;20231;-73
2022/10/29 10:16:59;;;;;;;17.45;7.70;;;21.10;99.90;;;;;;5004237;28;20219;-74
2022/10/29 10:19:28;;;;;;;15.55;5.35;;;21.30;99.90;;;;;;5021157;28;20045;-73
2022/10/29 10:21:58;;;;;;;;;;;21.50;99.90;;;;;;5022358;28;20358;-73
2022/10/29 10:24:35;;;;;;;10.50;3.70;;;21.70;99.90;;;;;;5020851;28;19929;-74
2022/10/29 10:27:23;;;;;;;12.77;4.10;;;21.80;99.90;;;;;;5021403;28;20041;-73
2022/10/29 10:30:03;;;;;;;9.68;3.65;;;22.00;99.90;;;;;;5021832;28;20042;-73
2022/10/29 10:32:30;;;;;;;9.52;4.22;;;22.20;99.90;;;;;;5020759;28;20208;-73
2022/10/29 10:34:55;;;;;;;10.50;3.72;;;22.40;99.90;;;;;;5021505;28;20025;-74
2022/10/29 10:37:23;;;;;;;10.50;3.60;;;22.70;99.90;;;;;;5021078;28;20326;-74
2022/10/29 10:39:51;;;;;;;13.43;4.20;;;22.90;99.60;;;;;;5021249;28;20251;-74
2022/10/29 10:42:38;;;;;;;10.88;3.50;;;23.10;99.40;;;;;;5003846;28;20048;-73
2022/10/29 10:45:37;;;;;;;16.90;4.90;;;23.30;98.60;;;;;;5021073;28;20029;-71
2022/10/29 10:48:08;;;;;;;12.48;4.28;;;23.60;97.70;;;;;;4968868;28;20079;-73
2022/10/29 10:50:35;;;;;;;11.10;4.10;;;23.80;97.30;;;;;;5020809;28;20074;-71
2022/10/29 10:53:15;;;;;;;10.98;3.83;;;24.20;96.90;;;;;;5021508;28;20034;-73
2022/10/29 10:55:47;;;;;;;12.40;4.15;;;24.60;96.00;;;;;;5021531;28;20034;-74
2022/10/29 10:58:37;;;;;;;10.38;3.72;;;24.90;95.00;;;;;;5022479;28;20040;-72
2022/10/29 11:01:13;;;;;;;8.45;3.75;;;25.20;94.70;;;;;;5021495;28;20036;-73
2022/10/29 11:03:47;;;;;;;10.20;3.70;;;25.80;93.40;;;;;;5020699;28;20316;-74
2022/10/29 11:06:22;;;;;;;13.05;4.07;;;25.90;92.80;;;;;;5021005;28;20034;-73
2022/10/29 11:09:18;;;;;;;12.70;4.00;;;26.20;92.40;;;;;;5021121;28;20323;-74
2022/10/29 11:12:01;;;;;;;9.30;3.60;;;26.40;91.50;;;;;;5008826;28;20331;-73
2022/10/29 11:14:41;;;;;;;7.63;3.35;;;26.90;91.30;;;;;;5020727;28;20140;-73
2022/10/29 11:17:34;;;;;;;11.73;3.92;;;27.10;90.20;;;;;;5021037;28;20385;-72
2022/10/29 11:20:20;;;;;;;9.43;3.80;;;27.60;89.80;;;;;;5020634;28;20057;-74
2022/10/29 11:23:08;;;;;;;9.30;3.40;;;28.10;87.30;;;;;;5020686;28;20037;-78
2022/10/29 11:25:38;;;;;;;;;;;28.60;85.50;;;;;;5021036;28;20316;-76
2022/10/29 11:28:14;;;;;;;66.97;20.13;;;28.90;84.20;;;;;;5003465;28;19905;-76
2022/10/29 11:30:50;;;;;;;20.33;5.30;;;29.70;84.00;;;;;;5020419;28;20034;-75
2022/10/29 11:33:34;;;;;;;10.82;4.07;;;30.30;81.70;;;;;;5021029;28;20034;-75
2022/10/29 11:36:13;;;;;;;11.48;3.65;;;30.50;80.20;;;;;;5016981;28;20037;-77
2022/10/29 11:38:47;;;;;;;10.40;3.30;;;30.50;79.00;;;;;;5020749;28;20362;-76
2022/10/29 11:41:33;;;;;;;11.10;3.60;;;30.60;78.30;;;;;;5021120;28;20184;-76
2022/10/29 11:43:59;;;;;;;8.80;3.38;;;30.90;76.10;;;;;;5021040;28;20147;-75
2022/10/29 11:46:52;;;;;;;10.93;3.60;;;31.30;75.30;;;;;;5020337;28;20097;-75
2022/10/29 11:49:30;;;;;;;12.70;3.15;;;31.40;74.70;;;;;;5016767;28;20367;-76
2022/10/29 11:52:09;;;;;;;10.13;3.45;;;31.10;74.80;;;;;;5020826;28;20326;-75
2022/10/29 11:55:01;;;;;;;9.23;3.40;;;31.50;74.20;;;;;;5015284;28;20042;-74
2022/10/29 11:57:42;;;;;;;10.73;4.32;;;31.30;74.00;;;;;;5020402;28;20169;-75
2022/10/29 12:00:19;;;;;;;16.15;3.60;;;31.70;73.70;;;;;;5020960;28;20108;-75
2022/10/29 12:03:22;;;;;;;6.87;2.93;;;31.90;72.40;;;;;;5000968;28;20061;-75
2022/10/29 12:06:15;;;;;;;9.95;3.92;;;32.30;71.80;;;;;;4990676;28;20041;-75
2022/10/29 12:08:41;;;;;;;9.43;3.17;;;33.30;70.30;;;;;;5000630;28;20124;-76
2022/10/29 12:11:16;;;;;;;7.47;3.05;;;34.00;69.20;;;;;;5018843;28;20061;-75
2022/10/29 12:14:06;;;;;;;9.18;3.10;;;34.70;67.90;;;;;;5023739;28;20314;-75
2022/10/29 12:16:53;;;;;;;13.15;3.10;;;34.80;65.70;;;;;;5023392;28;20107;-74
2022/10/29 12:19:18;;;;;;;8.67;3.20;;;34.50;65.80;;;;;;5016713;28;20042;-74
2022/10/29 12:22:13;;;;;;;11.60;3.75;;;34.60;66.00;;;;;;5004379;28;20130;-74
2022/10/29 12:25:08;;;;;;;10.35;3.08;;;34.30;65.50;;;;;;5009664;28;20050;-75
2022/10/29 12:27:53;;;;;;;9.57;3.50;;;34.60;65.80;;;;;;5003561;28;20054;-75
2022/10/29 12:30:22;;;;;;;8.75;3.38;;;34.60;65.50;;;;;;5003684;28;20104;-75
2022/10/29 12:33:05;;;;;;;7.07;2.60;;;34.90;64.80;;;;;;5013928;28;20045;-75
2022/10/29 12:36:00;;;;;;;9.32;2.83;;;35.00;64.30;;;;;;5023370;28;20084;-75
2022/10/29 12:38:46;;;;;;;8.10;3.10;;;34.70;64.20;;;;;;5015267;28;20331;-75
2022/10/29 12:41:36;;;;;;;11.55;3.42;;;33.80;65.10;;;;;;5004067;28;20038;-75
2022/10/29 12:44:27;;;;;;;8.45;3.20;;;32.80;66.40;;;;;;5004049;28;20026;-74
2022/10/29 12:47:01;;;;;;;9.30;3.65;;;32.20;68.00;;;;;;5004510;28;20329;-74
2022/10/29 12:50:02;;;;;;;9.27;4.03;;;31.40;69.00;;;;;;5017168;28;20029;-75
2022/10/29 12:52:34;;;;;;;12.25;3.90;;;31.10;70.00;;;;;;5006455;28;20038;-76
2022/10/29 12:55:03;;;;;;;8.93;3.95;;;31.50;70.00;;;;;;5005925;28;20316;-74
2022/10/29 12:57:31;;;;;;;13.48;4.22;;;32.00;69.40;;;;;;5007625;28;20101;-73
2022/10/29 13:00:17;;;;;;;;;;;32.00;68.60;;;;;;5011393;28;20267;-73
2022/10/29 13:02:43;;;;;;;10.18;3.67;;;31.80;68.70;;;;;;5021568;28;19972;-76
2022/10/29 13:05:09;;;;;;;14.70;4.32;;;32.10;69.50;;;;;;5003701;28;20144;-76
2022/10/29 13:07:45;;;;;;;12.82;4.05;;;32.00;69.00;;;;;;5002854;28;20240;-72
2022/10/29 13:10:28;;;;;;;10.23;3.60;;;31.70;69.30;;;;;;5012282;28;20034;-73
2022/10/29 13:13:19;;;;;;;9.45;4.40;;;31.40;70.00;;;;;;5022852;28;20041;-72
2022/10/29 13:16:07;;;;;;;10.57;4.45;;;31.10;70.00;;;;;;5023349;28;20041;-72
2022/10/29 13:18:39;;;;;;;15.98;4.80;;;30.70;70.70;;;;;;5002713;28;20046;-75
2022/10/29 13:21:07;;;;;;;11.05;4.35;;;30.50;71.80;;;;;;5014296;28;20101;-76
2022/10/29 13:23:34;;;;;;;10.80;4.22;;;30.80;71.60;;;;;;5021655;28;20030;-71
2022/10/29 13:26:08;;;;;;;10.70;3.60;;;31.20;70.60;;;;;;5005491;28;20037;-75
2022/10/29 13:28:57;;;;;;;9.27;4.28;;;31.20;70.70;;;;;;5021508;28;20093;-75
2022/10/29 13:31:23;;;;;;;11.80;3.67;;;31.10;71.20;;;;;;4962644;29;20035;-76
2022/10/29 13:33:49;;;;;;;14.07;3.83;;;31.00;71.30;;;;;;4962366;29;20274;-76
2022/10/29 13:36:14;;;;;;;8.93;3.70;;;31.10;71.20;;;;;;4962510;28;20043;-77
2022/10/29 13:38:49;;;;;;;13.95;4.70;;;31.30;71.40;;;;;;4961723;29;20053;-77
2022/10/29 13:41:16;;;;;;;14.63;4.65;;;31.40;71.20;;;;;;4962234;29;20448;-76
2022/10/29 13:44:02;;;;;;;12.27;4.28;;;31.30;70.70;;;;;;4961464;29;20043;-77
2022/10/29 13:46:51;;;;;;;10.10;4.32;;;31.00;71.10;;;;;;4945458;29;20058;-78
2022/10/29 13:49:42;;;;;;;14.00;4.68;;;30.60;71.50;;;;;;4953404;28;20054;-76
2022/10/29 13:52:08;;;;;;;11.50;3.90;;;30.70;71.90;;;;;;4914222;29;20040;-77
2022/10/29 13:54:46;;;;;;;12.82;4.88;;;30.60;71.70;;;;;;4923611;29;20050;-77
2022/10/29 13:57:11;;;;;;;16.20;4.75;;;30.20;72.50;;;;;;4924976;29;20141;-77
2022/10/29 13:59:40;;;;;;;10.20;4.13;;;30.20;73.00;;;;;;4925015;29;20036;-74
2022/10/29 14:02:41;;;;;;;10.85;4.32;;;30.20;73.60;;;;;;4924398;29;20255;-75
2022/10/29 14:05:30;;;;;;;10.85;4.03;;;30.00;74.40;;;;;;4850002;29;20071;-75
2022/10/29 14:08:14;;;;;;;10.07;4.18;;;30.10;74.60;;;;;;4932521;29;20102;-74
2022/10/29 14:10:40;;;;;;;9.27;4.35;;;30.00;75.00;;;;;;4961042;28;20110;-74
2022/10/29 14:13:36;;;;;;;13.90;4.07;;;29.90;75.50;;;;;;4961531;29;20082;-75
2022/10/29 14:16:07;;;;;;;11.35;4.25;;;29.70;75.70;;;;;;4961436;29;20073;-73
2022/10/29 14:18:41;;;;;;;12.40;4.05;;;29.80;77.30;;;;;;4956747;29;20036;-72
2022/10/29 14:21:17;;;;;;;12.27;4.75;;;29.90;76.30;;;;;;4957793;29;20222;-74
2022/10/29 14:24:03;;;;;;;9.40;4.00;;;29.60;76.70;;;;;;4960793;29;20039;-76
2022/10/29 14:26:31;;;;;;;14.40;5.00;;;29.70;76.90;;;;;;4945350;29;20042;-75
2022/10/29 14:29:20;;;;;;;8.70;4.03;;;29.30;76.70;;;;;;4978612;28;20038;-75
2022/10/29 14:32:04;;;;;;;14.80;5.07;;;28.90;77.70;;;;;;5001509;28;20057;-74
2022/10/29 14:34:30;;;;;;;10.10;4.43;;;28.50;78.60;;;;;;5007908;28;20044;-75
2022/10/29 14:37:01;;;;;;;10.65;4.97;;;28.10;79.60;;;;;;5011592;28;20042;-74
2022/10/29 14:39:34;;;;;;;11.60;5.40;;;27.60;81.20;;;;;;5018864;28;20335;-74
2022/10/29 14:42:01;;;;;;;11.20;5.00;;;27.30;82.20;;;;;;5001668;28;20225;-75
2022/10/29 14:44:31;;;;;;;8.82;5.05;;;27.00;83.30;;;;;;5003363;28;20343;-75
2022/10/29 14:47:07;;;;;;;10.80;4.85;;;26.70;84.70;;;;;;5021270;28;20026;-75
2022/10/29 14:49:38;;;;;;;12.75;5.07;;;26.50;85.60;;;;;;5003934;28;20045;-74
2022/10/29 14:52:32;;;;;;;11.45;5.28;;;26.30;85.70;;;;;;5011260;28;20085;-75
2022/10/29 14:55:07;;;;;;;14.55;5.80;;;26.10;86.20;;;;;;5001676;28;20038;-73
2022/10/29 14:57:38;;;;;;;10.98;5.22;;;25.90;87.00;;;;;;5000601;28;20089;-75
2022/10/29 15:00:05;;;;;;;15.98;6.68;;;25.70;87.20;;;;;;5000368;28;20212;-75
2022/10/29 15:02:38;;;;;;;12.18;6.05;;;25.30;87.30;;;;;;4999811;28;20084;-75
2022/10/29 15:05:20;;;;;;;12.70;5.43;;;25.00;88.00;;;;;;5000491;28;20278;-74
2022/10/29 15:07:46;;;;;;;13.20;5.68;;;24.80;88.50;;;;;;5003028;28;20309;-75
2022/10/29 15:10:23;;;;;;;13.25;5.93;;;24.70;89.70;;;;;;5011677;28;20029;-75
2022/10/29 15:12:51;;;;;;;13.05;5.93;;;24.50;90.00;;;;;;5001114;28;20041;-75
2022/10/29 15:15:17;;;;;;;13.68;5.45;;;24.30;90.50;;;;;;5001804;28;20354;-75
2022/10/29 15:17:53;;;;;;;13.75;5.82;;;24.10;90.90;;;;;;5001247;28;20061;-72
2022/10/29 15:20:32;;;;;;;15.88;6.38;;;24.00;91.00;;;;;;5019858;28;20026;-74
2022/10/29 15:22:58;;;;;;;13.40;6.45;;;23.90;91.40;;;;;;5020879;28;20093;-76
2022/10/29 15:25:38;;;;;;;14.57;6.40;;;23.80;91.70;;;;;;5020909;28;20263;-76
2022/10/29 15:28:09;;;;;;;18.05;6.57;;;23.70;92.00;;;;;;5021156;28;20049;-75
2022/10/29 15:30:37;;;;;;;14.55;6.40;;;23.50;92.40;;;;;;5003495;28;20029;-75
2022/10/29 15:33:09;;;;;;;16.57;6.70;;;23.40;92.50;;;;;;5021085;28;20026;-75
2022/10/29 15:35:41;;;;;;;12.52;6.72;;;23.30;93.30;;;;;;5002077;28;20023;-75
2022/10/29 15:38:29;;;;;;;13.93;7.20;;;23.10;93.60;;;;;;5020702;28;20053;-75
2022/10/29 15:41:07;;;;;;;;;;;23.00;93.90;;;;;;5020703;28;20265;-75
2022/10/29 15:43:33;;;;;;;14.13;6.80;;;22.90;94.70;;;;;;5000870;28;19905;-75
2022/10/29 15:45:59;;;;;;;14.38;6.88;;;22.80;95.00;;;;;;5002876;28;20102;-74
2022/10/29 15:48:29;;;;;;;13.20;6.40;;;22.60;95.40;;;;;;5005312;28;20034;-75
2022/10/29 15:50:56;;;;;;;13.40;6.80;;;22.50;95.40;;;;;;5012062;28;20167;-75
2022/10/29 15:53:22;;;;;;;17.17;6.65;;;22.40;95.90;;;;;;5007793;28;20030;-76
2022/10/29 15:55:51;;;;;;;17.73;7.00;;;22.30;96.10;;;;;;5020176;28;20246;-74
2022/10/29 15:58:22;;;;;;;16.77;7.30;;;22.20;96.00;;;;;;5019389;28;20038;-74
2022/10/29 16:00:49;;;;;;;14.63;7.35;;;22.00;96.30;;;;;;5004604;28;20034;-76
2022/10/29 16:03:23;;;;;;;14.10;7.65;;;21.90;96.60;;;;;;5020943;28;20205;-75
2022/10/29 16:05:52;;;;;;;15.10;6.88;;;21.80;96.90;;;;;;5026603;28;20136;-75
2022/10/29 16:08:26;;;;;;;19.42;6.70;;;21.60;97.20;;;;;;4993139;28;20383;-76
2022/10/29 16:10:53;;;;;;;14.15;6.88;;;21.50;97.50;;;;;;5024567;28;20053;-75
2022/10/29 16:13:20;;;;;;;16.98;7.03;;;21.40;98.40;;;;;;5025290;28;20037;-75
2022/10/29 16:15:45;;;;;;;18.00;6.63;;;21.30;99.20;;;;;;5024942;28;20030;-76
2022/10/29 16:18:11;;;;;;;13.98;5.88;;;21.10;99.90;;;;;;5024942;28;20033;-74
2022/10/29 16:20:37;;;;;;;19.58;6.13;;;21.00;99.90;;;;;;5006408;28;20033;-75
2022/10/29 16:23:02;;;;;;;16.05;5.90;;;20.80;99.90;;;;;;5018528;28;20095;-74
2022/10/29 16:25:28;;;;;;;16.23;6.50;;;20.70;99.90;;;;;;5017314;28;20101;-74
2022/10/29 16:27:54;;;;;;;11.77;6.05;;;20.50;99.90;;;;;;5024458;28;20035;-76
2022/10/29 16:30:22;;;;;;;14.25;6.22;;;20.40;99.90;;;;;;5024663;28;20036;-75
2022/10/29 16:32:51;;;;;;;14.60;6.53;;;20.30;99.90;;;;;;5024563;28;20029;-74
2022/10/29 16:35:22;;;;;;;25.13;13.00;;;20.20;99.90;;;;;;5007288;28;20030;-75
2022/10/29 16:37:49;;;;;;;21.30;11.45;;;20.10;99.90;;;;;;5023989;28;20032;-75
2022/10/29 16:40:15;;;;;;;24.00;12.18;;;20.00;99.90;;;;;;5024878;28;20022;-74
2022/10/29 16:42:41;;;;;;;16.25;7.90;;;20.00;99.90;;;;;;5024361;28;20211;-74
2022/10/29 16:45:12;;;;;;;14.23;7.57;;;20.00;99.90;;;;;;5024773;28;20038;-76
2022/10/29 16:47:38;;;;;;;14.77;7.63;;;19.90;99.90;;;;;;5024816;28;20029;-75
2022/10/29 16:50:04;;;;;;;15.18;8.60;;;19.90;99.90;;;;;;5019171;28;20037;-75
2022/10/29 16:52:30;;;;;;;20.70;8.52;;;19.80;99.90;;;;;;5029516;28;20026;-74
2022/10/29 16:54:56;;;;;;;19.30;7.03;;;19.80;99.90;;;;;;5024234;28;20064;-78
2022/10/29 16:57:22;;;;;;;18.77;7.85;;;19.80;99.90;;;;;;5005926;28;20057;-74
2022/10/29 16:59:48;;;;;;;17.60;8.00;;;19.80;99.90;;;;;;5024452;28;20048;-76
2022/10/29 17:02:14;;;;;;;13.15;7.07;;;19.80;99.90;;;;;;5025484;28;20117;-76
2022/10/29 17:04:39;;;;;;;15.68;7.75;;;19.70;99.90;;;;;;5025294;28;20029;-75
2022/10/29 17:07:05;;;;;;;16.80;8.43;;;19.60;99.90;;;;;;5005839;28;20034;-75
2022/10/29 17:09:34;;;;;;;18.70;8.52;;;19.60;99.90;;;;;;5025212;28;20326;-74
2022/10/29 17:12:00;;;;;;;;;;;19.50;99.90;;;;;;5018625;28;20034;-74
2022/10/29 17:14:26;;;;;;;18.55;9.93;;;19.40;99.90;;;;;;5004723;28;19945;-74
2022/10/29 17:16:51;;;;;;;24.73;14.27;;;19.30;99.90;;;;;;5017402;28;20038;-74
2022/10/29 17:19:17;;;;;;;24.55;12.50;;;19.20;99.90;;;;;;5004403;28;20022;-75
2022/10/29 17:21:43;;;;;;;19.83;9.77;;;19.20;99.90;;;;;;5003470;28;20316;-76
2022/10/29 17:24:09;;;;;;;22.42;9.98;;;19.10;99.90;;;;;;5004320;28;20208;-75
2022/10/29 17:26:34;;;;;;;17.55;9.77;;;19.00;99.90;;;;;;5024310;28;20029;-74
2022/10/29 17:29:00;;;;;;;17.13;9.00;;;19.00;99.90;;;;;;5006212;28;20121;-74
2022/10/29 17:31:27;;;;;;;21.08;9.80;;;19.00;99.90;;;;;;5004159;28;20046;-74
2022/10/29 17:33:53;;;;;;;20.67;10.23;;;18.90;99.90;;;;;;5010655;28;20085;-74
2022/10/29 17:36:18;;;;;;;19.70;8.93;;;18.90;99.90;;;;;;5014292;28;20030;-75
2022/10/29 17:38:45;;;;;;;22.08;9.40;;;18.80;99.90;;;;;;5003448;28;20363;-74
2022/10/29 17:41:11;;;;;;;19.20;8.75;;;18.70;99.90;;;;;;5004042;28;20295;-75
2022/10/29 17:43:36;;;;;;;17.33;9.45;;;18.70;99.90;;;;;;5004227;28;20042;-75
2022/10/29 17:46:02;;;;;;;19.15;9.00;;;18.60;99.90;;;;;;5004241;28;20293;-75
2022/10/29 17:48:28;;;;;;;16.58;8.40;;;18.60;99.90;;;;;;5004151;28;20045;-75
2022/10/29 17:50:56;;;;;;;19.25;10.23;;;18.50;99.90;;;;;;5018419;28;20029;-74
2022/10/29 17:53:23;;;;;;;19.75;9.73;;;18.40;99.90;;;;;;5006095;28;20036;-74
2022/10/29 17:55:49;;;;;;;21.80;10.13;;;18.40;99.90;;;;;;5003838;28;20201;-75
2022/10/29 17:58:18;;;;;;;28.02;11.85;;;18.40;99.90;;;;;;5003538;28;20089;-76
2022/10/29 18:00:45;;;;;;;24.15;12.02;;;18.40;99.90;;;;;;5004072;28;20042;-77
2022/10/29 18:03:11;;;;;;;24.88;12.35;;;18.40;99.90;;;;;;5017778;28;20121;-77
2022/10/29 18:05:37;;;;;;;23.15;12.05;;;18.30;99.90;;;;;;4989221;28;20034;-75
2022/10/29 18:08:02;;;;;;;20.10;11.57;;;18.20;99.90;;;;;;5017429;28;20077;-76